Time;durP1;ratioP1;P1;durP2;ratioP2;P2;SDS_P1;SDS_P2;PMS_P1;PMS_P2;Temp;Humidity;BMP_temperature;BMP_pressure;BME280_temperature;BME280_humidity;BME280_pressure;Samples;Min_cycle;Max_cycle;Signal;HPM_P1;HPM_P2
2022/10/05 00:00:58;;;;;;;1.80;1.70;;;;;;;11.87;61.04;97840.75;5046180;28;20785;-78
2022/10/05 00:03:35;;;;;;;2.27;2.10;;;;;;;11.66;61.71;97841.59;5047473;28;20185;-78
2022/10/05 00:06:02;;;;;;;2.10;1.90;;;;;;;11.71;61.69;97852.63;5048136;28;20577;-80
2022/10/05 00:08:32;;;;;;;3.23;2.03;;;;;;;11.60;62.18;97844.38;5050050;28;20288;-77
2022/10/05 00:11:00;;;;;;;3.33;2.20;;;;;;;11.55;61.94;97850.63;5056121;28;20282;-81
2022/10/05 00:13:29;;;;;;;2.20;2.00;;;;;;;11.34;62.28;97841.88;5050464;28;20181;-78
2022/10/05 00:16:17;;;;;;;3.03;2.10;;;;;;;11.02;63.38;97845.63;5051214;28;20265;-80
2022/10/05 00:18:50;;;;;;;1.83;1.73;;;;;;;11.08;63.52;97853.19;5050514;28;20576;-77
2022/10/05 00:21:19;;;;;;;2.80;2.20;;;;;;;10.72;64.83;97862.19;5049521;28;20669;-78
2022/10/05 00:23:46;;;;;;;2.53;2.33;;;;;;;10.77;64.53;97847.34;5048665;28;20240;-77
2022/10/05 00:26:20;;;;;;;2.67;2.20;;;;;;;10.76;64.82;97868.13;5050218;28;20214;-76
2022/10/05 00:28:48;;;;;;;3.20;2.43;;;;;;;10.74;65.39;97867.34;5050186;28;20201;-80
2022/10/05 00:31:18;;;;;;;2.37;2.13;;;;;;;10.75;65.44;97882.81;5048642;28;20179;-80
2022/10/05 00:33:46;;;;;;;3.90;2.50;;;;;;;10.70;65.60;97873.47;5050433;28;20194;-81
2022/10/05 00:36:14;;;;;;;3.53;1.90;;;;;;;10.45;65.96;97868.25;5049018;28;20748;-78
2022/10/05 00:38:42;;;;;;;2.60;2.40;;;;;;;10.64;66.32;97882.31;5049067;28;20182;-79
2022/10/05 00:41:21;;;;;;;2.30;2.10;;;;;;;10.67;65.69;97871.00;5049492;28;20218;-79
2022/10/05 00:44:14;;;;;;;2.83;2.40;;;;;;;10.69;65.51;97871.81;5049743;28;20206;-78
2022/10/05 00:47:06;;;;;;;3.40;2.33;;;;;;;10.67;65.51;97878.78;5048832;28;20194;-79
2022/10/05 00:49:55;;;;;;;3.27;2.17;;;;;;;10.60;65.71;97881.56;5049137;28;20919;-78
2022/10/05 00:52:37;;;;;;;2.27;2.07;;;;;;;10.54;65.80;97867.97;5049559;28;20232;-77
2022/10/05 00:55:04;;;;;;;2.70;2.13;;;;;;;10.56;66.48;97871.34;5048421;28;20186;-78
2022/10/05 00:58:03;;;;;;;2.80;2.37;;;;;;;10.77;66.10;97873.25;5047730;28;20293;-77
2022/10/05 01:00:38;;;;;;;3.20;2.50;;;;;;;10.75;65.05;97872.44;5050648;28;20221;-78
2022/10/05 01:03:35;;;;;;;2.27;2.07;;;;;;;10.63;66.21;97880.63;5031283;28;20591;-78
2022/10/05 01:06:26;;;;;;;2.53;2.33;;;;;;;10.54;66.38;97886.09;5049202;28;20277;-79
2022/10/05 01:09:01;;;;;;;3.70;2.30;;;;;;;10.41;66.64;97879.59;5041131;28;20234;-79
2022/10/05 01:11:46;;;;;;;2.17;1.97;;;;;;;10.35;66.96;97884.97;5051214;28;20193;-78
2022/10/05 01:14:39;;;;;;;2.57;2.37;;;;;;;10.21;67.34;97884.56;5048226;28;20228;-81
2022/10/05 01:17:19;;;;;;;2.50;2.30;;;;;;;10.12;67.53;97890.03;5049407;28;20267;-81
2022/10/05 01:19:55;;;;;;;3.17;2.30;;;;;;;9.99;67.38;97879.19;5047559;28;20182;-79
2022/10/05 01:22:44;;;;;;;2.50;2.20;;;;;;;10.20;66.97;97880.28;5049296;28;20247;-80
2022/10/05 01:25:20;;;;;;;2.57;2.37;;;;;;;10.20;66.96;97882.88;5048097;28;20228;-77
2022/10/05 01:27:47;;;;;;;2.63;2.17;;;;;;;10.24;66.92;97889.66;5049158;28;20228;-77
2022/10/05 01:30:17;;;;;;;2.50;2.30;;;;;;;10.24;66.67;97894.84;5049455;28;20197;-78
2022/10/05 01:33:26;;;;;;;2.67;2.40;;;;;;;10.28;66.18;97876.56;5046951;28;20652;-80
2022/10/05 01:35:56;;;;;;;2.90;2.60;;;;;;;10.21;66.90;97879.38;5048614;28;20269;-77
2022/10/05 01:38:28;;;;;;;2.47;2.10;;;;;;;10.27;66.72;97890.41;5048997;28;20209;-77
2022/10/05 01:41:24;;;;;;;2.57;2.30;;;;;;;10.20;66.95;97895.81;5048342;28;20213;-77
2022/10/05 01:43:55;;;;;;;2.93;2.10;;;;;;;10.11;67.26;97898.69;5047493;28;20264;-76
2022/10/05 01:46:34;;;;;;;2.40;2.10;;;;;;;9.99;68.00;97904.19;5048266;28;20193;-78
2022/10/05 01:49:19;;;;;;;3.13;2.83;;;;;;;9.91;68.08;97904.44;5047119;28;20189;-77
2022/10/05 01:51:49;;;;;;;2.47;2.13;;;;;;;9.73;68.93;97913.56;5048840;28;20186;-77
2022/10/05 01:54:38;;;;;;;2.80;2.60;;;;;;;9.64;69.37;97908.63;5048041;28;20221;-79
2022/10/05 01:57:18;;;;;;;2.90;2.30;;;;;;;9.50;69.74;97913.34;5047071;28;20348;-76
2022/10/05 02:00:08;;;;;;;2.73;2.47;;;;;;;9.39;70.00;97914.53;5046994;28;20182;-78
2022/10/05 02:03:00;;;;;;;3.70;2.77;;;;;;;9.42;70.01;97912.72;5046571;28;20198;-76
2022/10/05 02:05:49;;;;;;;3.70;3.10;;;;;;;9.35;70.46;97916.38;5048822;28;20232;-76
2022/10/05 02:08:22;;;;;;;3.27;2.70;;;;;;;9.51;69.91;97909.88;5052217;28;20285;-79
2022/10/05 02:11:06;;;;;;;4.27;3.03;;;;;;;9.55;69.62;97921.84;5055322;28;20661;-79
2022/10/05 02:13:58;;;;;;;3.83;3.20;;;;;;;9.49;70.07;97915.97;5051211;28;20188;-80
2022/10/05 02:16:44;;;;;;;3.73;3.17;;;;;;;9.59;69.70;97922.59;5050437;28;20229;-80
2022/10/05 02:19:26;;;;;;;3.57;3.20;;;;;;;9.46;69.46;97929.81;5048473;28;20182;-79
2022/10/05 02:22:07;;;;;;;3.53;2.90;;;;;;;9.44;69.73;97929.03;5047269;28;20583;-81
2022/10/05 02:24:43;;;;;;;3.40;3.10;;;;;;;9.31;70.36;97926.81;5046665;28;20269;-78
2022/10/05 02:27:17;;;;;;;3.53;3.03;;;;;;;9.36;70.48;97932.69;5047236;28;20216;-78
2022/10/05 02:29:47;;;;;;;3.20;2.90;;;;;;;9.25;70.61;97933.00;5046350;28;20204;-80
2022/10/05 02:32:21;;;;;;;4.47;3.37;;;;;;;9.12;70.58;97934.19;5046932;28;20185;-80
2022/10/05 02:34:48;;;;;;;4.43;3.67;;;;;;;8.94;72.09;97932.91;5046567;28;20198;-80
2022/10/05 02:37:41;;;;;;;3.40;3.10;;;;;;;8.94;71.57;97934.69;5047075;28;20233;-77
2022/10/05 02:40:33;;;;;;;3.47;2.80;;;;;;;8.78;72.04;97933.34;5046762;28;20190;-79
2022/10/05 02:43:12;;;;;;;3.83;3.07;;;;;;;8.88;72.45;97940.00;5047782;28;20718;-80
2022/10/05 02:46:02;;;;;;;3.37;3.00;;;;;;;8.90;72.17;97948.56;5047289;28;20267;-78
2022/10/05 02:48:56;;;;;;;3.30;2.97;;;;;;;8.96;71.47;97954.38;5046552;28;20720;-77
2022/10/05 02:51:32;;;;;;;3.20;2.53;;;;;;;8.97;70.82;97947.50;5026065;28;20770;-79
2022/10/05 02:54:31;;;;;;;3.30;2.90;;;;;;;8.90;71.13;97956.31;5047358;28;20189;-80
2022/10/05 02:57:15;;;;;;;3.03;2.73;;;;;;;8.83;71.80;97952.16;5047734;28;20225;-80
2022/10/05 03:00:13;;;;;;;3.20;2.90;;;;;;;8.76;72.33;97948.88;5045710;28;20586;-79
2022/10/05 03:02:50;;;;;;;4.73;2.80;;;;;;;8.81;72.35;97953.94;5045844;28;20201;-79
2022/10/05 03:05:32;;;;;;;3.17;2.87;;;;;;;8.72;72.77;97949.84;5046280;28;20186;-80
2022/10/05 03:08:02;;;;;;;3.67;2.90;;;;;;;8.79;71.82;97959.13;5047511;28;20217;-79
2022/10/05 03:10:46;;;;;;;2.73;2.53;;;;;;;8.82;71.61;97963.38;5049046;28;20593;-79
2022/10/05 03:13:29;;;;;;;3.43;3.10;;;;;;;8.81;72.18;97970.28;5045759;28;20208;-80
2022/10/05 03:16:08;;;;;;;3.27;2.97;;;;;;;8.91;71.29;97961.44;5045758;28;20758;-81
2022/10/05 03:18:43;;;;;;;3.47;3.10;;;;;;;9.07;70.80;97968.81;5047397;28;20223;-80
2022/10/05 03:21:10;;;;;;;4.93;3.43;;;;;;;9.08;70.54;97973.06;5046367;28;20193;-77
2022/10/05 03:24:05;;;;;;;5.70;4.40;;;;;;;9.10;70.39;97977.31;5045822;28;20563;-79
2022/10/05 03:26:46;;;;;;;5.77;3.67;;;;;;;9.14;70.34;97966.03;5046609;28;20678;-79
2022/10/05 03:29:32;;;;;;;3.63;3.03;;;;;;;9.21;69.62;97969.31;5045422;28;20194;-78
2022/10/05 03:32:33;;;;;;;3.67;3.23;;;;;;;9.28;69.21;97965.66;5046252;28;20672;-80
2022/10/05 03:35:27;;;;;;;6.60;3.37;;;;;;;9.60;68.71;97974.25;5045263;28;20699;-78
2022/10/05 03:38:00;;;;;;;7.53;3.83;;;;;;;9.82;68.19;97969.34;5045141;28;20305;-78
2022/10/05 03:40:37;;;;;;;4.20;3.00;;;;;;;9.96;67.75;97979.31;5047491;28;20186;-79
2022/10/05 03:43:37;;;;;;;4.37;3.10;;;;;;;10.08;67.46;97981.53;5049364;28;20198;-79
2022/10/05 03:46:30;;;;;;;4.20;3.40;;;;;;;9.83;67.90;97981.38;5049922;28;20218;-80
2022/10/05 03:49:04;;;;;;;5.23;2.80;;;;;;;9.65;68.22;97989.66;5048099;28;20212;-80
2022/10/05 03:51:36;;;;;;;4.83;3.63;;;;;;;9.33;68.69;97995.69;5049236;28;20194;-80
2022/10/05 03:54:14;;;;;;;5.63;3.90;;;;;;;8.96;70.10;98000.88;5050198;28;20252;-79
2022/10/05 03:56:50;;;;;;;4.20;3.43;;;;;;;8.62;71.87;97988.81;5048898;28;20217;-80
2022/10/05 03:59:24;;;;;;;5.13;3.40;;;;;;;8.47;71.82;97995.16;5050069;28;20258;-79
2022/10/05 04:02:14;;;;;;;3.97;3.57;;;;;;;8.41;72.80;97999.63;5051280;28;20220;-80
2022/10/05 04:04:47;;;;;;;4.27;3.70;;;;;;;8.64;72.24;98007.69;5050534;28;20243;-81
2022/10/05 04:07:32;;;;;;;6.53;4.43;;;;;;;8.83;70.67;97999.50;5052621;28;20615;-78
2022/10/05 04:10:02;;;;;;;4.17;3.77;;;;;;;8.90;70.41;98005.38;5052612;28;20197;-80
2022/10/05 04:12:42;;;;;;;5.30;3.80;;;;;;;9.01;70.03;98013.69;5052881;28;20220;-82
2022/10/05 04:15:44;;;;;;;4.47;3.87;;;;;;;8.89;70.73;98017.44;5049501;28;20748;-81
2022/10/05 04:18:25;;;;;;;4.33;3.80;;;;;;;8.77;70.76;98014.28;5049766;28;20282;-80
2022/10/05 04:21:20;;;;;;;5.53;4.27;;;;;;;8.85;71.45;98020.13;5050644;28;20198;-79
2022/10/05 04:24:12;;;;;;;4.90;4.20;;;;;;;8.85;70.95;98020.97;5041039;28;20205;-79
2022/10/05 04:26:54;;;;;;;6.50;5.20;;;;;;;8.96;71.24;98025.91;5050163;28;20194;-79
2022/10/05 04:29:37;;;;;;;5.90;4.10;;;;;;;8.77;71.22;98019.44;5050681;28;20273;-79
2022/10/05 04:32:48;;;;;;;10.60;4.67;;;;;;;8.72;71.42;98029.03;5049475;28;20190;-79
2022/10/05 04:35:30;;;;;;;5.37;4.07;;;;;;;8.70;71.41;98030.78;5045605;28;20689;-80
2022/10/05 04:38:14;;;;;;;4.30;3.80;;;;;;;8.64;71.65;98033.50;5049083;28;20649;-78
2022/10/05 04:41:12;;;;;;;5.93;3.60;;;;;;;8.81;71.34;98021.06;5049373;28;20192;-80
2022/10/05 04:43:45;;;;;;;6.27;4.00;;;;;;;8.91;71.26;98036.34;5049134;28;20190;-79
2022/10/05 04:46:52;;;;;;;5.20;4.43;;;;;;;9.01;70.74;98037.81;5050001;28;21112;-79
2022/10/05 04:49:43;;;;;;;5.50;4.37;;;;;;;9.23;69.91;98030.41;5032914;28;20620;-79
2022/10/05 04:52:30;;;;;;;6.80;4.27;;;;;;;9.41;69.20;98037.69;5047673;28;20356;-78
2022/10/05 04:55:34;;;;;;;12.27;6.00;;;;;;;9.22;69.27;98041.63;5049333;28;20686;-77
2022/10/05 04:58:35;;;;;;;7.50;5.73;;;;;;;9.20;69.52;98032.19;5049247;28;20213;-80
2022/10/05 05:01:36;;;;;;;6.93;4.80;;;;;;;9.36;69.00;98034.38;5048631;28;20199;-77
2022/10/05 05:04:41;;;;;;;7.53;5.07;;;;;;;9.56;68.01;98042.47;5032212;28;20198;-80
2022/10/05 05:07:18;;;;;;;5.10;3.83;;;;;;;9.73;67.98;98053.22;5053888;28;20213;-79
2022/10/05 05:10:23;;;;;;;5.57;3.73;;;;;;;9.82;67.04;98058.16;5049166;28;20628;-79
2022/10/05 05:13:21;;;;;;;4.83;3.40;;;;;;;10.02;66.46;98061.94;5031983;28;20664;-80
2022/10/05 05:16:03;;;;;;;5.00;3.50;;;;;;;10.18;66.24;98069.28;5048788;28;20190;-80
2022/10/05 05:19:03;;;;;;;5.57;3.50;;;;;;;10.10;65.86;98078.13;5048169;28;20242;-78
2022/10/05 05:22:19;;;;;;;3.37;3.03;;;;;;;9.81;66.62;98091.81;5049515;28;20685;-77
2022/10/05 05:25:19;;;;;;;7.57;3.90;;;;;;;9.97;65.99;98084.50;5048194;28;20208;-79
2022/10/05 05:27:55;;;;;;;7.47;3.87;;;;;;;9.96;66.53;98090.56;5048791;28;20217;-80
2022/10/05 05:30:42;;;;;;;7.43;3.03;;;;;;;9.75;66.70;98069.53;5047579;28;20186;-79
2022/10/05 05:33:16;;;;;;;4.43;2.83;;;;;;;10.02;66.30;98096.44;5047884;28;20277;-77
2022/10/05 05:35:52;;;;;;;4.13;3.37;;;;;;;10.16;65.69;98096.13;5047188;28;20520;-79
2022/10/05 05:38:40;;;;;;;4.37;2.50;;;;;;;10.52;65.21;98100.25;5050910;28;20304;-76
2022/10/05 05:41:08;;;;;;;5.10;2.93;;;;;;;10.37;65.59;98098.09;5031017;28;20289;-76
2022/10/05 05:43:50;;;;;;;5.20;3.43;;;;;;;10.32;65.54;98102.56;5049158;28;20261;-78
2022/10/05 05:46:46;;;;;;;5.07;3.50;;;;;;;10.41;65.13;98100.56;5049175;28;20181;-78
2022/10/05 05:49:48;;;;;;;5.63;3.37;;;;;;;10.88;63.88;98100.94;5029169;28;20713;-79
2022/10/05 05:52:23;;;;;;;7.20;3.77;;;;;;;11.23;63.06;98093.75;5048620;28;20183;-77
2022/10/05 05:55:19;;;;;;;5.07;4.30;;;;;;;11.61;61.86;98102.91;5047571;28;20198;-79
2022/10/05 05:58:14;;;;;;;9.57;4.13;;;;;;;11.75;61.42;98100.72;5041384;28;20236;-78
2022/10/05 06:00:52;;;;;;;5.93;4.67;;;;;;;11.96;60.45;98102.59;5028560;28;20211;-76
2022/10/05 06:03:50;;;;;;;6.13;3.60;;;;;;;12.24;59.43;98108.53;5046106;28;20206;-76
2022/10/05 06:06:24;;;;;;;7.03;3.93;;;;;;;12.41;60.29;98104.47;5047386;28;20198;-78
2022/10/05 06:08:55;;;;;;;5.20;3.40;;;;;;;12.49;59.10;98102.47;5034490;28;20231;-78
2022/10/05 06:11:52;;;;;;;4.13;3.63;;;;;;;12.77;58.68;98098.78;5048322;28;20527;-79
2022/10/05 06:14:41;;;;;;;5.53;4.07;;;;;;;12.90;58.28;98105.19;5049102;28;20203;-78
2022/10/05 06:17:23;;;;;;;4.70;3.80;;;;;;;12.96;57.90;98114.53;5046786;28;20196;-79
2022/10/05 06:19:56;;;;;;;6.10;4.00;;;;;;;13.05;57.32;98104.66;5048124;28;20209;-80
2022/10/05 06:22:40;;;;;;;5.93;3.67;;;;;;;13.32;57.96;98102.72;5046525;28;20716;-77
2022/10/05 06:25:13;;;;;;;4.87;3.80;;;;;;;13.52;57.18;98113.19;5046545;28;20247;-80
2022/10/05 06:27:55;;;;;;;4.97;3.10;;;;;;;13.68;56.66;98118.63;5046341;28;20179;-77
2022/10/05 06:30:25;;;;;;;8.27;3.90;;;;;;;13.78;56.88;98122.56;5047045;28;20203;-78
2022/10/05 06:33:14;;;;;;;6.10;4.27;;;;;;;13.65;56.70;98105.72;5046263;28;20246;-80
2022/10/05 06:36:06;;;;;;;4.93;4.30;;;;;;;13.91;55.71;98134.13;5047298;28;20201;-76
2022/10/05 06:38:45;;;;;;;5.43;4.17;;;;;;;14.10;55.89;98129.84;5046561;28;20725;-79
2022/10/05 06:41:46;;;;;;;9.57;5.57;;;;;;;14.18;55.58;98137.38;5046261;28;20292;-79
2022/10/05 06:44:32;;;;;;;14.10;7.90;;;;;;;14.49;54.68;98132.53;5047382;28;21074;-77
2022/10/05 06:47:46;;;;;;;8.17;3.83;;;;;;;14.59;53.56;98129.44;5046761;28;20569;-79
2022/10/05 06:50:55;;;;;;;6.47;3.43;;;;;;;14.74;53.99;98140.13;5041527;28;20202;-79
2022/10/05 06:54:02;;;;;;;8.60;4.47;;;;;;;14.89;53.55;98144.66;5043606;28;20297;-78
2022/10/05 06:57:01;;;;;;;8.13;3.93;;;;;;;15.03;53.37;98150.06;5049297;28;20201;-78
2022/10/05 07:00:00;;;;;;;7.90;4.83;;;;;;;15.21;53.29;98152.69;5036226;28;20325;-79
2022/10/05 07:02:39;;;;;;;9.30;4.60;;;;;;;15.19;53.58;98146.69;5045654;28;20721;-77
2022/10/05 07:05:28;;;;;;;4.43;3.27;;;;;;;15.09;53.23;98160.22;5046366;28;20192;-79
2022/10/05 07:07:57;;;;;;;6.00;2.77;;;;;;;15.13;53.62;98159.19;5051984;28;20327;-79
2022/10/05 07:10:56;;;;;;;4.97;2.60;;;;;;;15.33;53.35;98151.28;5045941;28;20220;-78
2022/10/05 07:13:42;;;;;;;3.57;2.90;;;;;;;15.30;53.09;98151.41;5049110;28;20198;-81
2022/10/05 07:16:35;;;;;;;7.13;3.10;;;;;;;15.33;53.05;98143.47;5045459;28;20209;-79
2022/10/05 07:19:11;;;;;;;6.70;3.60;;;;;;;15.19;53.95;98145.84;5051320;28;20238;-82
2022/10/05 07:22:36;;;;;;;4.93;2.90;;;;;;;15.54;53.05;98147.66;5049813;28;20189;-78
2022/10/05 07:25:19;;;;;;;3.70;2.83;;;;;;;15.67;52.76;98138.34;5031864;28;20284;-78
2022/10/05 07:27:54;;;;;;;5.63;4.00;;;;;;;15.89;52.23;98141.59;5029337;28;20221;-78
2022/10/05 07:30:22;;;;;;;10.27;4.20;;;;;;;16.00;52.01;98141.91;5045732;28;20231;-79
2022/10/05 07:33:08;;;;;;;3.70;2.30;;;;;;;16.17;51.46;98149.75;5049528;28;20186;-78
2022/10/05 07:38:58;;;;;;;4.30;2.40;;;;;;;16.50;50.17;98125.47;5045343;28;20213;-80
2022/10/05 07:41:44;;;;;;;2.03;1.57;;;;;;;16.41;48.87;98136.34;5045252;28;20202;-80
2022/10/05 07:44:15;;;;;;;2.00;1.53;;;;;;;16.47;48.46;98133.41;5046135;28;20452;-78
2022/10/05 07:46:54;;;;;;;1.77;1.43;;;;;;;16.44;48.55;98133.59;5044492;28;20247;-79
2022/10/05 07:49:46;;;;;;;2.93;1.40;;;;;;;16.50;47.87;98142.00;5045069;28;20243;-80
2022/10/05 07:52:24;;;;;;;4.80;1.40;;;;;;;16.59;47.35;98138.06;5045535;28;20182;-79
2022/10/05 07:55:19;;;;;;;1.43;1.30;;;;;;;16.58;47.18;98141.59;5045012;28;20277;-77
2022/10/05 07:58:22;;;;;;;3.90;1.30;;;;;;;16.58;47.57;98144.22;5045576;28;20235;-79
2022/10/05 08:01:12;;;;;;;2.03;1.50;;;;;;;16.63;46.90;98148.25;5025104;28;20322;-78
2022/10/05 08:03:57;;;;;;;1.97;1.33;;;;;;;16.90;46.49;98149.44;5045236;28;20193;-78
2022/10/05 08:06:56;;;;;;;1.47;1.13;;;;;;;16.84;46.25;98148.91;5049459;28;20221;-77
2022/10/05 08:09:45;;;;;;;1.70;1.27;;;;;;;16.79;45.99;98148.31;5031854;28;20257;-78
2022/10/05 08:12:22;;;;;;;3.77;1.23;;;;;;;16.84;45.77;98120.13;5045009;28;20186;-79
2022/10/05 08:15:08;;;;;;;1.40;0.97;;;;;;;16.91;45.36;98152.91;5047038;28;20196;-78
2022/10/05 08:17:51;;;;;;;2.07;1.20;;;;;;;16.96;45.95;98156.13;5044822;28;20196;-79
2022/10/05 08:20:21;;;;;;;0.93;0.87;;;;;;;17.15;44.94;98145.47;5045804;28;20186;-77
2022/10/05 08:22:57;;;;;;;1.10;1.00;;;;;;;16.93;44.25;98146.66;5046230;28;20285;-78
2022/10/05 08:25:32;;;;;;;1.43;0.90;;;;;;;16.92;44.42;98102.25;5045695;28;20275;-78
2022/10/05 08:28:11;;;;;;;1.70;1.07;;;;;;;17.05;45.14;98145.16;5050385;28;20291;-79
2022/10/05 08:31:30;;;;;;;3.37;1.57;;;;;;;17.30;44.10;98148.13;5048536;28;20189;-79
2022/10/05 08:34:19;;;;;;;1.30;1.07;;;;;;;17.62;43.84;98133.28;5047237;28;20203;-80
2022/10/05 08:36:59;;;;;;;1.17;0.90;;;;;;;17.57;43.98;98138.78;5050380;28;20569;-79
2022/10/05 08:39:33;;;;;;;3.87;1.20;;;;;;;17.16;43.73;98141.97;5048985;28;20240;-77
2022/10/05 08:42:57;;;;;;;1.40;1.30;;;;;;;17.28;44.39;98139.50;5049280;28;20244;-80
2022/10/05 08:45:52;;;;;;;1.43;1.33;;;;;;;17.77;43.51;98135.00;4968507;28;20766;-78
2022/10/05 08:48:48;;;;;;;2.63;1.30;;;;;;;18.07;42.93;98132.41;4967854;28;20288;-78
2022/10/05 08:51:48;;;;;;;1.60;1.40;;;;;;;18.26;42.67;98125.16;5048903;28;20360;-78
2022/10/05 08:54:26;;;;;;;1.20;1.10;;;;;;;18.18;42.39;98130.00;5050121;28;20574;-78
2022/10/05 08:57:14;;;;;;;2.83;1.50;;;;;;;18.40;42.48;98126.00;5048926;28;20212;-78
2022/10/05 09:00:03;;;;;;;1.13;0.97;;;;;;;18.20;42.07;98122.88;5048974;28;20218;-78
2022/10/05 09:02:33;;;;;;;3.83;2.67;;;;;;;17.95;42.09;98130.50;5048927;28;20263;-78
2022/10/05 09:05:32;;;;;;;3.40;1.67;;;;;;;18.05;42.29;98129.03;5049092;28;20198;-78
2022/10/05 09:08:11;;;;;;;1.10;1.00;;;;;;;18.04;41.85;98132.59;5051261;28;20325;-78
2022/10/05 09:11:01;;;;;;;2.87;1.40;;;;;;;18.41;41.88;98127.72;5047947;28;20267;-79
2022/10/05 09:13:38;;;;;;;3.63;2.03;;;;;;;18.79;40.67;98137.72;5047322;28;20714;-84
2022/10/05 09:16:14;;;;;;;3.67;2.00;;;;;;;19.12;39.46;98136.47;5050128;28;20193;-80
2022/10/05 09:19:22;;;;;;;1.70;1.40;;;;;;;19.29;39.44;98138.03;5048396;28;20247;-79
2022/10/05 09:21:55;;;;;;;3.07;1.47;;;;;;;19.48;39.20;98139.44;4989485;28;20657;-79
2022/10/05 09:25:02;;;;;;;1.40;1.17;;;;;;;19.53;38.98;98144.41;5042721;28;20299;-80
2022/10/05 09:27:36;;;;;;;0.90;0.90;;;;;;;19.41;38.97;98138.13;5047575;28;20239;-78
2022/10/05 09:30:17;;;;;;;1.40;1.20;;;;;;;19.14;39.62;98139.84;5047202;28;20249;-78
2022/10/05 09:33:33;;;;;;;1.53;1.20;;;;;;;19.12;39.36;98141.75;5049808;28;20199;-79
2022/10/05 09:36:29;;;;;;;2.50;1.63;;;;;;;18.55;41.91;98145.28;4948148;29;20291;-79
2022/10/05 09:39:11;;;;;;;2.10;1.40;;;;;;;17.85;42.49;98148.53;5048569;28;20220;-77
2022/10/05 09:41:42;;;;;;;1.90;1.40;;;;;;;17.99;42.28;98151.19;5048983;28;20874;-79
2022/10/05 09:44:30;;;;;;;2.70;1.20;;;;;;;18.05;42.54;98160.50;5049010;28;20191;-79
2022/10/05 09:47:29;;;;;;;2.13;1.43;;;;;;;17.99;42.69;98153.00;5047928;28;20187;-79
2022/10/05 09:50:26;;;;;;;1.70;1.40;;;;;;;18.09;42.35;98162.00;5048414;28;20192;-77
2022/10/05 09:53:08;;;;;;;2.93;1.50;;;;;;;18.35;41.76;98145.59;5047807;28;20748;-77
2022/10/05 09:56:18;;;;;;;2.73;1.43;;;;;;;18.71;41.27;98147.84;5047973;28;20194;-78
2022/10/05 09:59:07;;;;;;;1.10;1.03;;;;;;;18.72;41.40;98158.22;5049070;28;20221;-79
2022/10/05 10:01:39;;;;;;;2.20;1.60;;;;;;;18.81;41.09;98147.19;5047677;28;20220;-80
2022/10/05 10:04:47;;;;;;;4.97;1.97;;;;;;;18.87;41.19;98145.97;5050162;28;20246;-78
2022/10/05 10:07:50;;;;;;;1.70;1.20;;;;;;;19.07;40.26;98154.28;5051453;28;20216;-78
2022/10/05 10:10:53;;;;;;;1.83;1.10;;;;;;;19.49;39.99;98154.25;5051961;28;20246;-79
2022/10/05 10:13:54;;;;;;;2.07;1.13;;;;;;;19.88;39.11;98150.00;5029874;28;20203;-79
2022/10/05 10:16:52;;;;;;;1.43;1.33;;;;;;;19.92;38.61;98133.09;5048187;28;20244;-79
2022/10/05 10:19:46;;;;;;;1.53;1.10;;;;;;;20.09;37.75;98153.88;5047397;28;20374;-80
2022/10/05 10:22:31;;;;;;;2.03;1.47;;;;;;;20.24;37.85;98152.84;5047952;28;20577;-79
2022/10/05 10:25:34;;;;;;;5.33;2.80;;;;;;;20.50;38.39;98146.72;5046178;28;20611;-79
2022/10/05 10:28:39;;;;;;;2.90;1.83;;;;;;;20.37;37.86;98148.47;5004932;28;20212;-79
2022/10/05 10:31:24;;;;;;;1.87;1.40;;;;;;;20.12;38.40;98145.75;5047661;28;20208;-79
2022/10/05 10:34:06;;;;;;;1.10;1.00;;;;;;;19.42;39.41;98145.09;5047843;28;20189;-79
2022/10/05 10:36:52;;;;;;;0.90;0.90;;;;;;;18.60;41.03;98149.34;5045951;28;20686;-79
2022/10/05 10:39:56;;;;;;;1.77;1.10;;;;;;;18.34;41.60;98149.97;5046666;28;20690;-80
2022/10/05 10:42:29;;;;;;;5.30;1.83;;;;;;;18.71;41.15;98147.84;5047907;28;20187;-79
2022/10/05 10:45:27;;;;;;;3.17;1.47;;;;;;;18.89;40.99;98150.19;5047020;28;20194;-79
2022/10/05 10:48:17;;;;;;;2.43;1.27;;;;;;;18.43;41.76;98141.63;5047325;28;20246;-79
2022/10/05 10:51:28;;;;;;;2.63;1.37;;;;;;;18.44;42.34;98139.84;5046925;28;20193;-80
2022/10/05 10:54:19;;;;;;;3.20;1.40;;;;;;;18.28;42.64;98136.41;4966120;28;20713;-80
2022/10/05 10:56:53;;;;;;;2.30;1.40;;;;;;;18.27;42.07;98139.97;4966527;28;20378;-79
2022/10/05 10:59:57;;;;;;;4.33;2.67;;;;;;;18.44;42.35;98138.03;5026025;28;20716;-79
2022/10/05 11:02:45;;;;;;;1.80;1.00;;;;;;;18.06;42.46;98135.97;5048809;28;20191;-79
2022/10/05 11:05:22;;;;;;;1.30;1.20;;;;;;;18.29;42.21;98124.97;5048264;28;20198;-79
2022/10/05 11:08:00;;;;;;;5.00;4.20;;;;;;;18.63;42.11;98122.88;5049568;28;20187;-79
2022/10/05 11:10:45;;;;;;;1.57;1.23;;;;;;;19.10;41.08;98133.09;5050820;28;20207;-78
2022/10/05 11:13:36;;;;;;;1.70;1.37;;;;;;;19.30;40.28;98137.94;5046823;28;20188;-79
2022/10/05 11:16:27;;;;;;;1.77;1.33;;;;;;;19.45;39.59;98128.28;5046631;28;20196;-79
2022/10/05 11:18:57;;;;;;;1.97;0.93;;;;;;;19.03;40.28;98116.03;5045155;28;20346;-78
2022/10/05 11:21:43;;;;;;;4.47;1.17;;;;;;;18.74;40.19;98117.00;5046880;28;20196;-77
2022/10/05 11:24:24;;;;;;;2.13;1.17;;;;;;;19.23;39.48;98113.00;5046496;28;20272;-77
2022/10/05 11:26:54;;;;;;;1.53;1.40;;;;;;;19.09;38.89;98118.28;5046992;28;20192;-80
2022/10/05 11:30:00;;;;;;;1.10;1.00;;;;;;;19.28;39.31;98113.56;5047212;28;20196;-79
2022/10/05 11:32:55;;;;;;;3.17;1.33;;;;;;;19.63;39.00;98105.22;5019313;28;20208;-79
2022/10/05 11:35:37;;;;;;;1.43;1.23;;;;;;;19.76;38.48;98109.59;5047171;28;20751;-79
2022/10/05 11:38:15;;;;;;;1.17;1.00;;;;;;;19.71;37.48;98111.66;5046384;28;20190;-79
2022/10/05 11:41:21;;;;;;;1.63;1.03;;;;;;;19.60;37.41;98094.94;5046868;28;20621;-78
2022/10/05 11:44:06;;;;;;;1.47;1.13;;;;;;;19.74;37.25;98087.78;5017953;28;20221;-81
2022/10/05 11:47:24;;;;;;;1.90;1.10;;;;;;;19.98;36.50;98101.97;5045013;28;20186;-79
2022/10/05 11:50:05;;;;;;;1.80;1.03;;;;;;;20.05;36.27;98094.53;5013509;28;20208;-79
2022/10/05 11:52:51;;;;;;;1.10;0.90;;;;;;;19.92;35.99;98094.50;5046869;28;20254;-79
2022/10/05 11:55:32;;;;;;;2.13;1.33;;;;;;;20.31;36.02;98085.75;5045177;28;20664;-82
2022/10/05 11:58:22;;;;;;;3.87;1.80;;;;;;;20.46;35.48;98081.22;5046068;28;20752;-80
2022/10/05 12:01:02;;;;;;;1.50;1.40;;;;;;;20.49;36.00;98078.34;5047142;28;20698;-78
2022/10/05 12:03:57;;;;;;;1.33;1.10;;;;;;;20.80;34.78;98080.53;5051576;28;20281;-79
2022/10/05 12:06:42;;;;;;;1.63;1.20;;;;;;;20.84;34.52;98082.00;5052698;28;20576;-77
2022/10/05 12:09:13;;;;;;;1.57;1.20;;;;;;;20.86;34.68;98075.69;5054559;28;20673;-79
2022/10/05 12:12:05;;;;;;;1.63;1.30;;;;;;;20.87;33.74;98080.03;5052359;28;20605;-78
2022/10/05 12:14:41;;;;;;;1.13;0.90;;;;;;;20.39;33.86;98078.16;5050928;28;20178;-78
2022/10/05 12:17:23;;;;;;;1.37;0.93;;;;;;;20.29;34.31;98066.59;5032773;28;20251;-79
2022/10/05 12:19:56;;;;;;;0.80;0.80;;;;;;;20.45;34.05;98064.56;5050837;28;20232;-76
2022/10/05 12:22:33;;;;;;;1.73;0.90;;;;;;;20.42;34.22;98069.22;5049996;28;20642;-78
2022/10/05 12:25:27;;;;;;;2.37;0.77;;;;;;;20.39;33.63;98065.00;5050449;28;20843;-79
2022/10/05 12:28:03;;;;;;;1.47;1.10;;;;;;;20.28;33.41;98067.50;5049915;28;20653;-79
2022/10/05 12:31:05;;;;;;;0.77;0.70;;;;;;;20.12;33.69;98061.59;5050013;28;20602;-79
2022/10/05 12:33:43;;;;;;;1.87;1.20;;;;;;;20.34;33.54;98074.16;5049686;28;20818;-77
2022/10/05 12:36:16;;;;;;;0.83;0.83;;;;;;;20.32;32.99;98069.00;5050045;28;20242;-77
2022/10/05 12:39:03;;;;;;;2.73;1.87;;;;;;;20.24;33.76;98058.16;5049525;28;21080;-78
2022/10/05 12:41:56;;;;;;;1.00;0.90;;;;;;;20.15;33.77;98066.66;5049958;28;20189;-76
2022/10/05 12:44:45;;;;;;;0.93;0.90;;;;;;;20.18;33.81;98076.94;5049802;28;20224;-80
2022/10/05 12:47:22;;;;;;;0.90;0.90;;;;;;;20.15;34.03;98072.72;5049159;28;20186;-78
2022/10/05 12:50:15;;;;;;;1.10;1.00;;;;;;;20.10;34.65;98082.75;5049864;28;20196;-80
2022/10/05 12:52:51;;;;;;;2.27;1.20;;;;;;;19.97;35.15;98083.69;5045973;28;20467;-77
2022/10/05 12:55:41;;;;;;;2.03;1.30;;;;;;;19.86;35.58;98058.09;5049466;28;20284;-78
2022/10/05 12:58:30;;;;;;;1.77;0.80;;;;;;;20.06;35.66;98073.38;5048332;28;20194;-79
2022/10/05 13:01:23;;;;;;;7.00;4.50;;;;;;;20.22;34.96;98084.56;5049030;28;20232;-80
2022/10/05 13:04:00;;;;;;;1.37;1.13;;;;;;;20.03;35.64;98089.34;5049180;28;20201;-80
2022/10/05 13:06:47;;;;;;;1.13;1.00;;;;;;;19.91;35.65;98084.91;5047443;28;20200;-76